createdAt,value
2023-02-02T00:00:56.107Z,3.20
2023-02-02T00:09:29.246Z,3.10
2023-02-02T00:12:08.255Z,3.20
2023-02-02T00:14:45.953Z,3.10
2023-02-02T00:17:37.391Z,3.10
2023-02-02T00:20:27.835Z,3.10
2023-02-02T00:23:12.402Z,3.10
2023-02-02T00:25:56.208Z,3.00
2023-02-02T00:28:31.437Z,3.10
2023-02-02T00:31:30.183Z,3.10
2023-02-02T00:34:12.035Z,3.10
2023-02-02T00:36:51.651Z,3.10
2023-02-02T00:39:48.963Z,3.10
2023-02-02T00:42:26.795Z,3.10
2023-02-02T00:45:20.714Z,3.10
2023-02-02T00:48:15.105Z,3.10
2023-02-02T00:51:18.417Z,3.20
2023-02-02T00:53:55.768Z,3.20
2023-02-02T00:56:35.344Z,3.20
2023-02-02T00:59:11.869Z,3.10
2023-02-02T01:01:50.104Z,3.20
2023-02-02T01:04:41.388Z,3.20
2023-02-02T01:07:45.129Z,3.20
2023-02-02T01:10:23.774Z,3.20
2023-02-02T01:13:05.396Z,3.20
2023-02-02T01:15:46.298Z,3.10
2023-02-02T01:18:37.317Z,3.20
2023-02-02T01:21:14.730Z,3.20
2023-02-02T01:24:16.994Z,3.20
2023-02-02T01:27:32.749Z,3.20
2023-02-02T01:30:15.545Z,3.20
2023-02-02T01:32:55.077Z,3.20
2023-02-02T01:35:36.864Z,3.30
2023-02-02T01:38:29.253Z,3.30
2023-02-02T01:41:12.659Z,3.30
2023-02-02T01:44:31.546Z,3.30
2023-02-02T01:47:25.932Z,3.30
2023-02-02T01:50:05.455Z,3.30
2023-02-02T01:52:55.430Z,3.30
2023-02-02T01:55:37.184Z,3.30
2023-02-02T01:58:19.292Z,3.30
2023-02-02T02:00:54.546Z,3.30
2023-02-02T02:03:29.426Z,3.40
2023-02-02T02:11:54.078Z,3.40
2023-02-02T02:14:58.920Z,3.40
2023-02-02T02:17:46.453Z,3.40
2023-02-02T02:21:05.092Z,3.40
2023-02-02T02:24:55.986Z,3.40
2023-02-02T02:28:16.469Z,3.40
2023-02-02T02:31:29.030Z,3.50
2023-02-02T02:34:13.590Z,3.50
2023-02-02T02:36:58.053Z,3.50
2023-02-02T02:39:37.055Z,3.50
2023-02-02T02:42:29.703Z,3.50
2023-02-02T02:45:20.699Z,3.50
2023-02-02T02:48:02.715Z,3.50
2023-02-02T02:50:44.721Z,3.50
2023-02-02T02:53:29.518Z,3.50
2023-02-02T02:56:17.487Z,3.50
2023-02-02T02:59:13.063Z,3.50
2023-02-02T03:05:49.064Z,3.50
2023-02-02T03:08:40.549Z,3.50
2023-02-02T03:18:02.389Z,3.60
2023-02-02T03:27:07.915Z,3.60
2023-02-02T03:32:58.478Z,3.60
2023-02-02T03:38:52.874Z,3.60
2023-02-02T03:41:30.263Z,3.70
2023-02-02T03:47:17.361Z,3.60
2023-02-02T03:57:02.555Z,3.60
2023-02-02T04:00:27.147Z,3.70
2023-02-02T04:03:20.067Z,3.70
2023-02-02T04:06:10.926Z,3.70
2023-02-02T04:11:50.052Z,3.80
2023-02-02T04:14:47.582Z,3.80
2023-02-02T04:17:26.203Z,3.80
2023-02-02T04:20:47.448Z,3.80
2023-02-02T04:23:29.706Z,3.80
2023-02-02T04:30:44.491Z,3.80
2023-02-02T04:33:22.126Z,3.90
2023-02-02T04:36:22.392Z,3.90
2023-02-02T04:39:07.238Z,3.90
2023-02-02T04:45:11.269Z,3.90
2023-02-02T04:47:47.835Z,3.90
2023-02-02T04:53:31.458Z,3.90
2023-02-02T04:56:19.544Z,3.90
2023-02-02T04:59:22.036Z,4.00
2023-02-02T05:02:11.331Z,4.00
2023-02-02T05:04:50.031Z,3.90
2023-02-02T05:16:43.163Z,4.00
2023-02-02T05:19:17.658Z,4.00
2023-02-02T05:22:31.854Z,4.00
2023-02-02T05:25:20.225Z,4.00
2023-02-02T05:28:00.551Z,4.00
2023-02-02T05:31:06.498Z,4.00
2023-02-02T05:33:48.632Z,4.00
2023-02-02T05:36:30.735Z,4.20
2023-02-02T05:39:10.222Z,4.10
2023-02-02T05:48:13.266Z,4.10
2023-02-02T05:51:20.160Z,4.10
2023-02-02T05:53:56.570Z,4.10
2023-02-02T05:56:37.916Z,4.10
2023-02-02T06:05:04.935Z,4.10
2023-02-02T06:07:45.244Z,4.10
2023-02-02T06:13:24.669Z,4.10
2023-02-02T06:15:59.803Z,4.10
2023-02-02T06:18:34.455Z,4.10
2023-02-02T06:21:13.411Z,4.10
2023-02-02T06:23:54.081Z,4.10
2023-02-02T06:29:35.189Z,4.00
2023-02-02T06:35:55.901Z,4.00
2023-02-02T06:39:02.544Z,3.90
2023-02-02T06:42:20.401Z,3.90
2023-02-02T06:45:02.777Z,3.90
2023-02-02T06:50:40.088Z,3.80
2023-02-02T06:53:33.198Z,3.80
2023-02-02T06:56:24.534Z,3.80
2023-02-02T06:59:09.646Z,3.80
2023-02-02T07:05:39.329Z,3.80
2023-02-02T07:08:31.819Z,3.80
2023-02-02T07:14:02.357Z,3.80
2023-02-02T07:19:55.396Z,3.90
2023-02-02T07:22:34.303Z,3.90
2023-02-02T07:25:36.641Z,3.90
2023-02-02T07:28:28.166Z,3.90
2023-02-02T07:31:12.203Z,3.90
2023-02-02T07:34:12.743Z,3.90
2023-02-02T07:37:16.842Z,3.90
2023-02-02T07:48:46.269Z,4.00
2023-02-02T07:52:00.184Z,4.00
2023-02-02T07:55:18.704Z,4.00
2023-02-02T07:58:06.497Z,4.00
2023-02-02T08:00:48.204Z,4.00
2023-02-02T08:30:25.882Z,4.30
2023-02-02T08:33:36.768Z,4.30
2023-02-02T08:36:21.960Z,4.30
2023-02-02T08:42:18.134Z,4.10
2023-02-02T08:54:41.907Z,4.40
2023-02-02T10:16:50.307Z,4.20
2023-02-02T10:19:36.648Z,4.20
2023-02-02T10:22:11.719Z,4.30
2023-02-02T10:25:10.048Z,4.40
2023-02-02T10:27:51.423Z,4.70
2023-02-02T10:30:31.429Z,4.90
2023-02-02T10:33:11.066Z,5.10
2023-02-02T10:35:53.710Z,5.30
2023-02-02T10:38:38.105Z,5.30
2023-02-02T10:41:21.618Z,5.30
2023-02-02T10:44:10.378Z,5.30
2023-02-02T10:46:46.786Z,5.40
2023-02-02T10:49:26.579Z,5.50
2023-02-02T10:52:17.436Z,5.70
2023-02-02T10:55:25.832Z,5.80
2023-02-02T10:58:08.475Z,5.90
2023-02-02T11:00:48.819Z,5.90
2023-02-02T11:03:26.793Z,5.90
2023-02-02T11:06:26.325Z,5.90
2023-02-02T11:09:05.604Z,5.90
2023-02-02T11:11:48.604Z,6.00
2023-02-02T11:14:44.804Z,6.00
2023-02-02T11:17:21.995Z,6.00
2023-02-02T11:20:10.412Z,6.00
2023-02-02T11:22:47.254Z,6.00
2023-02-02T11:25:51.770Z,6.00
2023-02-02T11:28:39.879Z,6.10
2023-02-02T11:31:33.824Z,6.10
2023-02-02T11:34:25.264Z,6.10
2023-02-02T11:37:19.285Z,6.00
2023-02-02T11:46:28.079Z,6.00
2023-02-02T11:52:55.554Z,6.20
2023-02-02T11:55:38.224Z,6.20
2023-02-02T11:58:33.126Z,6.10
2023-02-02T12:01:30.814Z,6.00
2023-02-02T12:04:32.609Z,6.00
2023-02-02T12:13:31.004Z,6.00
2023-02-02T12:20:06.397Z,6.00
2023-02-02T12:23:06.982Z,5.90
2023-02-02T12:31:47.370Z,5.40
2023-02-02T12:34:33.722Z,5.30
2023-02-02T12:37:22.307Z,5.30
2023-02-02T12:40:03.834Z,5.20
2023-02-02T12:42:59.007Z,5.10
2023-02-02T12:49:37.677Z,4.90
2023-02-02T12:52:12.705Z,4.90
2023-02-02T12:58:42.659Z,4.80
2023-02-02T13:02:01.073Z,4.80
2023-02-02T13:30:34.439Z,5.00
2023-02-02T13:37:27.912Z,5.00
2023-02-02T13:53:02.381Z,4.00
2023-02-02T13:56:22.381Z,3.70
2023-02-02T13:59:07.617Z,3.50
2023-02-02T14:04:58.281Z,3.30
2023-02-02T14:07:56.999Z,3.30
2023-02-02T14:17:02.867Z,3.40
2023-02-02T14:20:04.780Z,3.50
2023-02-02T14:48:35.791Z,3.60
2023-02-02T15:13:02.078Z,3.50
2023-02-02T16:20:49.789Z,2.70
2023-02-02T16:23:49.467Z,2.60
2023-02-02T18:04:47.881Z,1.50
2023-02-02T18:29:35.227Z,1.70
2023-02-02T18:35:21.637Z,1.80
2023-02-02T18:37:58.585Z,1.80
2023-02-02T18:40:36.943Z,1.80
2023-02-02T18:46:59.071Z,1.80
2023-02-02T19:40:34.554Z,1.70
2023-02-02T19:52:23.512Z,1.70
2023-02-02T20:12:20.727Z,1.40
2023-02-02T20:15:07.980Z,1.40
2023-02-02T20:21:01.008Z,1.30
2023-02-02T20:27:51.016Z,1.30
2023-02-02T21:34:52.345Z,0.50
2023-02-02T21:37:29.507Z,0.40
2023-02-02T21:40:12.322Z,0.30
2023-02-02T21:42:52.654Z,0.30
2023-02-02T21:48:28.574Z,0.20
2023-02-02T21:51:22.525Z,0.20
2023-02-02T21:54:02.372Z,0.10
2023-02-02T21:56:41.760Z,0.10
2023-02-02T21:59:24.286Z,0.10
2023-02-02T22:02:04.492Z,0.10
2023-02-02T22:04:45.120Z,0.00
2023-02-02T22:07:27.415Z,0.00
2023-02-02T22:10:08.696Z,0.00
2023-02-02T22:12:54.786Z,0.00
2023-02-02T22:15:33.818Z,0.00
2023-02-02T22:18:15.888Z,-0.10
2023-02-02T22:20:52.684Z,-0.10
2023-02-02T22:23:58.484Z,-0.10
2023-02-02T22:26:44.270Z,-0.10
2023-02-02T22:29:24.974Z,-0.10
2023-02-02T22:32:01.985Z,-0.20
2023-02-02T22:34:41.993Z,-0.20
2023-02-02T22:37:19.656Z,-0.30
2023-02-02T22:40:00.952Z,-0.30
2023-02-02T22:42:43.153Z,-0.30
2023-02-02T22:45:29.239Z,-0.30
2023-02-02T22:48:03.614Z,-0.30
2023-02-02T22:50:41.324Z,-0.40
2023-02-02T22:53:18.135Z,-0.40
2023-02-02T22:55:57.322Z,-0.40
2023-02-02T22:58:39.117Z,-0.40
2023-02-02T23:01:24.247Z,-0.50
2023-02-02T23:04:00.725Z,-0.40
2023-02-02T23:06:36.935Z,-0.50
2023-02-02T23:09:12.491Z,-0.60
2023-02-02T23:11:51.240Z,-0.50
2023-02-02T23:14:33.879Z,-0.60
2023-02-02T23:17:11.926Z,-0.60
2023-02-02T23:19:47.447Z,-0.60
2023-02-02T23:22:26.215Z,-0.60
2023-02-02T23:25:05.400Z,-0.60
2023-02-02T23:27:46.771Z,-0.70
2023-02-02T23:30:29.123Z,-0.70
2023-02-02T23:33:07.273Z,-0.70
2023-02-02T23:35:43.474Z,-0.70
2023-02-02T23:38:19.383Z,-0.60
2023-02-02T23:40:56.409Z,-0.70
2023-02-02T23:43:31.777Z,-0.70
2023-02-02T23:46:18.123Z,-0.70
2023-02-02T23:48:54.476Z,-0.70
2023-02-02T23:51:30.678Z,-0.70
2023-02-02T23:54:22.528Z,-0.70
2023-02-02T23:56:58.988Z,-0.70
2023-02-02T23:59:36.849Z,-0.70
